sensor_id;sensor_type;location;lat;lon;timestamp;temperature;humidity
18041;DHT22;9145;48.588;9.250;2023-02-16T00:01:42;4.30;99.90
18041;DHT22;9145;48.588;9.250;2023-02-16T00:04:19;4.10;99.90
18041;DHT22;9145;48.588;9.250;2023-02-16T00:06:47;4.00;99.90
18041;DHT22;9145;48.588;9.250;2023-02-16T00:09:14;3.90;99.90
18041;DHT22;9145;48.588;9.250;2023-02-16T00:11:41;4.00;99.90
18041;DHT22;9145;48.588;9.250;2023-02-16T00:14:26;4.10;99.90
18041;DHT22;9145;48.588;9.250;2023-02-16T00:16:55;4.10;99.90
18041;DHT22;9145;48.588;9.250;2023-02-16T00:19:24;4.10;99.90
18041;DHT22;9145;48.588;9.250;2023-02-16T00:21:53;4.00;99.90
18041;DHT22;9145;48.588;9.250;2023-02-16T00:24:20;3.90;99.90
18041;DHT22;9145;48.588;9.250;2023-02-16T00:26:47;4.00;99.90
18041;DHT22;9145;48.588;9.250;2023-02-16T00:29:18;4.00;99.90
18041;DHT22;9145;48.588;9.250;2023-02-16T00:31:45;4.10;99.90
18041;DHT22;9145;48.588;9.250;2023-02-16T00:34:26;3.90;99.90
18041;DHT22;9145;48.588;9.250;2023-02-16T00:36:54;3.70;99.90
18041;DHT22;9145;48.588;9.250;2023-02-16T00:39:22;3.50;99.90
18041;DHT22;9145;48.588;9.250;2023-02-16T00:41:50;3.50;99.90
18041;DHT22;9145;48.588;9.250;2023-02-16T00:44:20;3.40;99.90
18041;DHT22;9145;48.588;9.250;2023-02-16T00:46:48;3.50;99.90
18041;DHT22;9145;48.588;9.250;2023-02-16T00:49:20;3.70;99.90
18041;DHT22;9145;48.588;9.250;2023-02-16T00:51:48;3.70;99.90
18041;DHT22;9145;48.588;9.250;2023-02-16T00:54:15;3.80;99.90
18041;DHT22;9145;48.588;9.250;2023-02-16T00:56:42;4.00;99.90
18041;DHT22;9145;48.588;9.250;2023-02-16T00:59:14;4.00;99.90
18041;DHT22;9145;48.588;9.250;2023-02-16T01:01:42;4.10;99.90
18041;DHT22;9145;48.588;9.250;2023-02-16T01:04:14;4.20;99.90
18041;DHT22;9145;48.588;9.250;2023-02-16T01:06:43;4.30;99.90
18041;DHT22;9145;48.588;9.250;2023-02-16T01:09:28;4.20;99.90
18041;DHT22;9145;48.588;9.250;2023-02-16T01:12:14;4.00;99.90
18041;DHT22;9145;48.588;9.250;2023-02-16T01:14:44;3.80;99.90
18041;DHT22;9145;48.588;9.250;2023-02-16T01:17:11;3.90;99.90
18041;DHT22;9145;48.588;9.250;2023-02-16T01:19:38;3.90;99.90
18041;DHT22;9145;48.588;9.250;2023-02-16T01:22:05;3.90;99.90
18041;DHT22;9145;48.588;9.250;2023-02-16T01:24:33;4.00;99.90
18041;DHT22;9145;48.588;9.250;2023-02-16T01:27:00;4.10;99.90
18041;DHT22;9145;48.588;9.250;2023-02-16T01:29:27;4.20;99.90
18041;DHT22;9145;48.588;9.250;2023-02-16T01:31:54;4.30;99.90
18041;DHT22;9145;48.588;9.250;2023-02-16T01:34:21;4.30;99.90
18041;DHT22;9145;48.588;9.250;2023-02-16T01:36:48;4.30;99.90
18041;DHT22;9145;48.588;9.250;2023-02-16T01:39:16;4.30;99.90
18041;DHT22;9145;48.588;9.250;2023-02-16T01:41:56;4.30;99.90
18041;DHT22;9145;48.588;9.250;2023-02-16T01:44:29;4.30;99.90
18041;DHT22;9145;48.588;9.250;2023-02-16T01:47:01;4.40;99.90
18041;DHT22;9145;48.588;9.250;2023-02-16T01:49:30;4.30;99.90
18041;DHT22;9145;48.588;9.250;2023-02-16T01:52:01;4.00;99.90
18041;DHT22;9145;48.588;9.250;2023-02-16T01:54:33;3.70;99.90
18041;DHT22;9145;48.588;9.250;2023-02-16T01:57:08;3.60;99.90
18041;DHT22;9145;48.588;9.250;2023-02-16T02:00:03;3.70;99.90
18041;DHT22;9145;48.588;9.250;2023-02-16T02:02:33;3.70;99.90
18041;DHT22;9145;48.588;9.250;2023-02-16T02:05:07;3.70;99.90
18041;DHT22;9145;48.588;9.250;2023-02-16T02:07:58;3.70;99.90
18041;DHT22;9145;48.588;9.250;2023-02-16T02:10:33;3.70;99.90
18041;DHT22;9145;48.588;9.250;2023-02-16T02:13:08;3.90;99.90
18041;DHT22;9145;48.588;9.250;2023-02-16T02:15:36;3.80;99.90
18041;DHT22;9145;48.588;9.250;2023-02-16T02:18:03;3.70;99.90
18041;DHT22;9145;48.588;9.250;2023-02-16T02:20:41;3.40;99.90
18041;DHT22;9145;48.588;9.250;2023-02-16T02:23:42;3.30;99.90
18041;DHT22;9145;48.588;9.250;2023-02-16T02:26:48;3.30;99.90
18041;DHT22;9145;48.588;9.250;2023-02-16T02:29:37;3.40;99.90
18041;DHT22;9145;48.588;9.250;2023-02-16T02:32:15;3.40;99.90
18041;DHT22;9145;48.588;9.250;2023-02-16T02:34:57;3.50;99.90
18041;DHT22;9145;48.588;9.250;2023-02-16T02:37:31;3.30;99.90
18041;DHT22;9145;48.588;9.250;2023-02-16T02:40:05;3.20;99.90
18041;DHT22;9145;48.588;9.250;2023-02-16T02:42:40;3.00;99.90
18041;DHT22;9145;48.588;9.250;2023-02-16T02:45:12;2.80;99.90
18041;DHT22;9145;48.588;9.250;2023-02-16T02:47:42;2.90;99.90
18041;DHT22;9145;48.588;9.250;2023-02-16T02:50:39;2.90;99.90
18041;DHT22;9145;48.588;9.250;2023-02-16T02:53:27;3.00;99.90
18041;DHT22;9145;48.588;9.250;2023-02-16T02:55:55;3.20;99.90
18041;DHT22;9145;48.588;9.250;2023-02-16T02:58:42;3.20;99.90
18041;DHT22;9145;48.588;9.250;2023-02-16T03:01:32;3.00;99.90
18041;DHT22;9145;48.588;9.250;2023-02-16T03:04:01;2.90;99.90
18041;DHT22;9145;48.588;9.250;2023-02-16T03:06:32;2.80;99.90
18041;DHT22;9145;48.588;9.250;2023-02-16T03:09:04;2.70;99.90
18041;DHT22;9145;48.588;9.250;2023-02-16T03:11:33;2.60;99.90
18041;DHT22;9145;48.588;9.250;2023-02-16T03:14:23;2.50;99.90
18041;DHT22;9145;48.588;9.250;2023-02-16T03:16:53;2.40;99.90
18041;DHT22;9145;48.588;9.250;2023-02-16T03:19:40;2.30;99.90
18041;DHT22;9145;48.588;9.250;2023-02-16T03:22:26;2.30;99.90
18041;DHT22;9145;48.588;9.250;2023-02-16T03:25:11;2.30;99.90
18041;DHT22;9145;48.588;9.250;2023-02-16T03:27:56;2.40;99.90
18041;DHT22;9145;48.588;9.250;2023-02-16T03:30:44;2.60;99.90
18041;DHT22;9145;48.588;9.250;2023-02-16T03:33:12;2.70;99.90
18041;DHT22;9145;48.588;9.250;2023-02-16T03:35:39;2.80;99.90
18041;DHT22;9145;48.588;9.250;2023-02-16T03:38:06;2.80;99.90
18041;DHT22;9145;48.588;9.250;2023-02-16T03:40:34;2.80;99.90
18041;DHT22;9145;48.588;9.250;2023-02-16T03:43:06;2.80;99.90
18041;DHT22;9145;48.588;9.250;2023-02-16T03:45:40;2.80;99.90
18041;DHT22;9145;48.588;9.250;2023-02-16T03:48:09;2.90;99.90
18041;DHT22;9145;48.588;9.250;2023-02-16T03:50:36;3.00;99.90
18041;DHT22;9145;48.588;9.250;2023-02-16T03:53:03;3.00;99.90
18041;DHT22;9145;48.588;9.250;2023-02-16T03:55:34;3.10;99.90
18041;DHT22;9145;48.588;9.250;2023-02-16T03:58:03;2.90;99.90
18041;DHT22;9145;48.588;9.250;2023-02-16T04:00:30;2.90;99.90
18041;DHT22;9145;48.588;9.250;2023-02-16T04:02:56;2.80;99.90
18041;DHT22;9145;48.588;9.250;2023-02-16T04:05:25;2.70;99.90
18041;DHT22;9145;48.588;9.250;2023-02-16T04:07:52;2.60;99.90
18041;DHT22;9145;48.588;9.250;2023-02-16T04:10:19;2.60;99.90
18041;DHT22;9145;48.588;9.250;2023-02-16T04:12:46;2.60;99.90
18041;DHT22;9145;48.588;9.250;2023-02-16T04:15:14;2.70;99.90
18041;DHT22;9145;48.588;9.250;2023-02-16T04:17:41;2.80;99.90
18041;DHT22;9145;48.588;9.250;2023-02-16T04:20:11;2.80;99.90
18041;DHT22;9145;48.588;9.250;2023-02-16T04:22:40;2.80;99.90
18041;DHT22;9145;48.588;9.250;2023-02-16T04:25:07;2.80;99.90
18041;DHT22;9145;48.588;9.250;2023-02-16T04:27:34;2.70;99.90
18041;DHT22;9145;48.588;9.250;2023-02-16T04:30:02;2.60;99.90
18041;DHT22;9145;48.588;9.250;2023-02-16T04:32:29;2.60;99.90
18041;DHT22;9145;48.588;9.250;2023-02-16T04:34:56;2.60;99.90
18041;DHT22;9145;48.588;9.250;2023-02-16T04:37:23;2.60;99.90
18041;DHT22;9145;48.588;9.250;2023-02-16T04:39:51;2.70;99.90
18041;DHT22;9145;48.588;9.250;2023-02-16T04:42:18;2.70;99.90
18041;DHT22;9145;48.588;9.250;2023-02-16T04:44:45;2.70;99.90
18041;DHT22;9145;48.588;9.250;2023-02-16T04:47:11;2.80;99.90
18041;DHT22;9145;48.588;9.250;2023-02-16T04:49:38;2.80;99.90
18041;DHT22;9145;48.588;9.250;2023-02-16T04:52:05;2.80;99.90
18041;DHT22;9145;48.588;9.250;2023-02-16T04:54:32;2.80;99.90
18041;DHT22;9145;48.588;9.250;2023-02-16T04:57:00;2.80;99.90
18041;DHT22;9145;48.588;9.250;2023-02-16T04:59:27;2.80;99.90
18041;DHT22;9145;48.588;9.250;2023-02-16T05:01:54;2.70;99.90
18041;DHT22;9145;48.588;9.250;2023-02-16T05:04:21;2.70;99.90
18041;DHT22;9145;48.588;9.250;2023-02-16T05:06:48;2.60;99.90
18041;DHT22;9145;48.588;9.250;2023-02-16T05:09:15;2.60;99.90
18041;DHT22;9145;48.588;9.250;2023-02-16T05:11:42;2.70;99.90
18041;DHT22;9145;48.588;9.250;2023-02-16T05:14:29;2.80;99.90
18041;DHT22;9145;48.588;9.250;2023-02-16T05:17:10;2.90;99.90
18041;DHT22;9145;48.588;9.250;2023-02-16T05:19:37;3.00;99.90
18041;DHT22;9145;48.588;9.250;2023-02-16T05:22:05;3.00;99.90
18041;DHT22;9145;48.588;9.250;2023-02-16T05:24:32;3.00;99.90
18041;DHT22;9145;48.588;9.250;2023-02-16T05:27:00;3.00;99.90
18041;DHT22;9145;48.588;9.250;2023-02-16T05:29:29;2.90;99.90
18041;DHT22;9145;48.588;9.250;2023-02-16T05:31:56;2.70;99.90
18041;DHT22;9145;48.588;9.250;2023-02-16T05:34:23;2.60;99.90
18041;DHT22;9145;48.588;9.250;2023-02-16T05:36:50;2.50;99.90
18041;DHT22;9145;48.588;9.250;2023-02-16T05:39:17;2.60;99.90
18041;DHT22;9145;48.588;9.250;2023-02-16T05:41:44;2.70;99.90
18041;DHT22;9145;48.588;9.250;2023-02-16T05:44:11;2.70;99.90
18041;DHT22;9145;48.588;9.250;2023-02-16T05:46:40;2.70;99.90
18041;DHT22;9145;48.588;9.250;2023-02-16T05:49:07;2.70;99.90
18041;DHT22;9145;48.588;9.250;2023-02-16T05:51:35;2.70;99.90
18041;DHT22;9145;48.588;9.250;2023-02-16T05:54:02;2.70;99.90
18041;DHT22;9145;48.588;9.250;2023-02-16T05:56:29;2.70;99.90
18041;DHT22;9145;48.588;9.250;2023-02-16T05:58:57;2.70;99.90
18041;DHT22;9145;48.588;9.250;2023-02-16T06:01:24;2.70;99.90
18041;DHT22;9145;48.588;9.250;2023-02-16T06:03:53;2.70;99.90
18041;DHT22;9145;48.588;9.250;2023-02-16T06:06:19;2.70;99.90
18041;DHT22;9145;48.588;9.250;2023-02-16T06:08:46;2.80;99.90
18041;DHT22;9145;48.588;9.250;2023-02-16T06:11:13;2.80;99.90
18041;DHT22;9145;48.588;9.250;2023-02-16T06:13:58;2.80;99.90
18041;DHT22;9145;48.588;9.250;2023-02-16T06:16:27;2.90;99.90
18041;DHT22;9145;48.588;9.250;2023-02-16T06:18:55;2.80;99.90
18041;DHT22;9145;48.588;9.250;2023-02-16T06:21:23;2.80;99.90
18041;DHT22;9145;48.588;9.250;2023-02-16T06:23:51;2.70;99.90
18041;DHT22;9145;48.588;9.250;2023-02-16T06:26:17;2.80;99.90
18041;DHT22;9145;48.588;9.250;2023-02-16T06:28:44;2.80;99.90
18041;DHT22;9145;48.588;9.250;2023-02-16T06:31:11;2.70;99.90
18041;DHT22;9145;48.588;9.250;2023-02-16T06:33:39;2.70;99.90
18041;DHT22;9145;48.588;9.250;2023-02-16T06:36:08;2.70;99.90
18041;DHT22;9145;48.588;9.250;2023-02-16T06:38:34;2.70;99.90
18041;DHT22;9145;48.588;9.250;2023-02-16T06:41:01;2.50;99.90
18041;DHT22;9145;48.588;9.250;2023-02-16T06:43:28;2.40;99.90
18041;DHT22;9145;48.588;9.250;2023-02-16T06:45:55;2.20;99.90
18041;DHT22;9145;48.588;9.250;2023-02-16T06:48:22;2.20;99.90
18041;DHT22;9145;48.588;9.250;2023-02-16T06:50:49;2.10;99.90
18041;DHT22;9145;48.588;9.250;2023-02-16T06:53:17;2.10;99.90
18041;DHT22;9145;48.588;9.250;2023-02-16T06:55:45;2.20;99.90
18041;DHT22;9145;48.588;9.250;2023-02-16T06:58:11;2.20;99.90
18041;DHT22;9145;48.588;9.250;2023-02-16T07:00:38;2.30;99.90
18041;DHT22;9145;48.588;9.250;2023-02-16T07:03:05;2.40;99.90
18041;DHT22;9145;48.588;9.250;2023-02-16T07:05:32;2.40;99.90
18041;DHT22;9145;48.588;9.250;2023-02-16T07:07:59;2.50;99.90
18041;DHT22;9145;48.588;9.250;2023-02-16T07:10:27;2.50;99.90
18041;DHT22;9145;48.588;9.250;2023-02-16T07:12:54;2.60;99.90
18041;DHT22;9145;48.588;9.250;2023-02-16T07:15:21;2.70;99.90
18041;DHT22;9145;48.588;9.250;2023-02-16T07:17:48;2.70;99.90
18041;DHT22;9145;48.588;9.250;2023-02-16T07:20:16;2.70;99.90
18041;DHT22;9145;48.588;9.250;2023-02-16T07:22:43;2.70;99.90
18041;DHT22;9145;48.588;9.250;2023-02-16T07:25:10;2.70;99.90
18041;DHT22;9145;48.588;9.250;2023-02-16T07:27:38;2.80;99.90
18041;DHT22;9145;48.588;9.250;2023-02-16T07:30:05;2.80;99.90
18041;DHT22;9145;48.588;9.250;2023-02-16T07:32:33;2.80;99.90
18041;DHT22;9145;48.588;9.250;2023-02-16T07:35:00;2.90;99.90
18041;DHT22;9145;48.588;9.250;2023-02-16T07:37:27;3.00;99.90
18041;DHT22;9145;48.588;9.250;2023-02-16T07:39:54;3.10;99.90
18041;DHT22;9145;48.588;9.250;2023-02-16T07:42:21;3.10;99.90
18041;DHT22;9145;48.588;9.250;2023-02-16T07:44:49;3.20;99.90
18041;DHT22;9145;48.588;9.250;2023-02-16T07:47:16;3.30;99.90
18041;DHT22;9145;48.588;9.250;2023-02-16T07:49:43;3.40;99.90
18041;DHT22;9145;48.588;9.250;2023-02-16T07:52:10;3.40;99.90
18041;DHT22;9145;48.588;9.250;2023-02-16T07:54:36;3.50;99.90
18041;DHT22;9145;48.588;9.250;2023-02-16T07:57:03;3.50;99.90
18041;DHT22;9145;48.588;9.250;2023-02-16T07:59:30;3.60;99.90
18041;DHT22;9145;48.588;9.250;2023-02-16T08:01:58;3.60;99.90
18041;DHT22;9145;48.588;9.250;2023-02-16T08:04:25;3.60;99.90
18041;DHT22;9145;48.588;9.250;2023-02-16T08:06:52;3.60;99.90
18041;DHT22;9145;48.588;9.250;2023-02-16T08:09:18;3.70;99.90
18041;DHT22;9145;48.588;9.250;2023-02-16T08:11:45;3.60;99.90
18041;DHT22;9145;48.588;9.250;2023-02-16T08:14:13;3.60;99.90
18041;DHT22;9145;48.588;9.250;2023-02-16T08:16:40;3.70;99.90
18041;DHT22;9145;48.588;9.250;2023-02-16T08:19:09;3.70;99.90
18041;DHT22;9145;48.588;9.250;2023-02-16T08:21:37;3.60;99.90
18041;DHT22;9145;48.588;9.250;2023-02-16T08:24:06;3.60;99.90
18041;DHT22;9145;48.588;9.250;2023-02-16T08:26:35;3.70;99.90
18041;DHT22;9145;48.588;9.250;2023-02-16T08:29:04;3.80;99.90
18041;DHT22;9145;48.588;9.250;2023-02-16T08:31:33;3.80;99.90
18041;DHT22;9145;48.588;9.250;2023-02-16T08:34:02;3.90;99.90
18041;DHT22;9145;48.588;9.250;2023-02-16T08:36:32;4.10;99.90
18041;DHT22;9145;48.588;9.250;2023-02-16T08:39:01;4.10;99.90
18041;DHT22;9145;48.588;9.250;2023-02-16T08:41:30;4.30;99.90
18041;DHT22;9145;48.588;9.250;2023-02-16T08:43:57;4.40;99.90
18041;DHT22;9145;48.588;9.250;2023-02-16T08:46:26;4.40;99.90
18041;DHT22;9145;48.588;9.250;2023-02-16T08:48:54;4.50;99.90
18041;DHT22;9145;48.588;9.250;2023-02-16T08:51:21;4.70;99.90
18041;DHT22;9145;48.588;9.250;2023-02-16T08:53:49;4.80;99.90
18041;DHT22;9145;48.588;9.250;2023-02-16T08:56:17;5.00;99.90
18041;DHT22;9145;48.588;9.250;2023-02-16T08:58:44;5.10;99.90
18041;DHT22;9145;48.588;9.250;2023-02-16T09:01:12;5.20;99.90
18041;DHT22;9145;48.588;9.250;2023-02-16T09:03:40;5.30;99.90
18041;DHT22;9145;48.588;9.250;2023-02-16T09:06:09;5.40;99.90
18041;DHT22;9145;48.588;9.250;2023-02-16T09:08:38;5.50;99.90
18041;DHT22;9145;48.588;9.250;2023-02-16T09:11:08;5.60;99.90
18041;DHT22;9145;48.588;9.250;2023-02-16T09:13:37;5.80;99.90
18041;DHT22;9145;48.588;9.250;2023-02-16T09:16:06;6.00;99.90
18041;DHT22;9145;48.588;9.250;2023-02-16T09:18:34;6.10;99.90
18041;DHT22;9145;48.588;9.250;2023-02-16T09:21:03;6.30;99.90
18041;DHT22;9145;48.588;9.250;2023-02-16T09:23:31;6.40;99.90
18041;DHT22;9145;48.588;9.250;2023-02-16T09:25:58;6.50;99.90
18041;DHT22;9145;48.588;9.250;2023-02-16T09:28:28;6.70;99.90
18041;DHT22;9145;48.588;9.250;2023-02-16T09:30:55;6.70;99.90
18041;DHT22;9145;48.588;9.250;2023-02-16T09:33:22;6.80;99.90
18041;DHT22;9145;48.588;9.250;2023-02-16T09:35:49;6.90;99.90
18041;DHT22;9145;48.588;9.250;2023-02-16T09:38:16;7.10;99.90
18041;DHT22;9145;48.588;9.250;2023-02-16T09:40:43;7.20;99.90
18041;DHT22;9145;48.588;9.250;2023-02-16T09:43:17;7.30;99.90
18041;DHT22;9145;48.588;9.250;2023-02-16T09:45:48;7.40;99.90
18041;DHT22;9145;48.588;9.250;2023-02-16T09:48:21;7.50;99.90
18041;DHT22;9145;48.588;9.250;2023-02-16T09:50:51;7.60;99.90
18041;DHT22;9145;48.588;9.250;2023-02-16T09:53:21;7.70;99.90
18041;DHT22;9145;48.588;9.250;2023-02-16T09:55:58;7.80;99.90
18041;DHT22;9145;48.588;9.250;2023-02-16T09:58:36;7.90;99.90
18041;DHT22;9145;48.588;9.250;2023-02-16T10:01:12;8.00;99.90
18041;DHT22;9145;48.588;9.250;2023-02-16T10:03:52;8.00;99.90
18041;DHT22;9145;48.588;9.250;2023-02-16T10:06:30;8.10;99.90
18041;DHT22;9145;48.588;9.250;2023-02-16T10:09:03;8.20;99.90
18041;DHT22;9145;48.588;9.250;2023-02-16T10:11:34;8.40;99.90
18041;DHT22;9145;48.588;9.250;2023-02-16T10:14:11;8.50;99.90
18041;DHT22;9145;48.588;9.250;2023-02-16T10:16:44;8.70;99.90
18041;DHT22;9145;48.588;9.250;2023-02-16T10:19:19;8.90;99.90
18041;DHT22;9145;48.588;9.250;2023-02-16T10:21:50;9.00;99.90
18041;DHT22;9145;48.588;9.250;2023-02-16T10:24:18;9.10;99.90
18041;DHT22;9145;48.588;9.250;2023-02-16T10:26:47;9.30;99.90
18041;DHT22;9145;48.588;9.250;2023-02-16T10:29:17;9.50;99.90
18041;DHT22;9145;48.588;9.250;2023-02-16T10:31:53;9.60;99.90
18041;DHT22;9145;48.588;9.250;2023-02-16T10:34:37;9.80;99.90
18041;DHT22;9145;48.588;9.250;2023-02-16T10:37:21;10.10;99.90
18041;DHT22;9145;48.588;9.250;2023-02-16T10:39:54;10.20;99.90
18041;DHT22;9145;48.588;9.250;2023-02-16T10:42:31;10.40;99.90
18041;DHT22;9145;48.588;9.250;2023-02-16T10:45:04;10.60;99.90
18041;DHT22;9145;48.588;9.250;2023-02-16T10:47:43;10.80;99.90
18041;DHT22;9145;48.588;9.250;2023-02-16T10:50:19;11.00;99.90
18041;DHT22;9145;48.588;9.250;2023-02-16T10:52:47;11.00;99.90
18041;DHT22;9145;48.588;9.250;2023-02-16T10:55:15;11.10;99.90
18041;DHT22;9145;48.588;9.250;2023-02-16T10:57:41;11.30;99.90
18041;DHT22;9145;48.588;9.250;2023-02-16T11:00:12;11.40;99.90
18041;DHT22;9145;48.588;9.250;2023-02-16T11:02:44;11.60;99.90
18041;DHT22;9145;48.588;9.250;2023-02-16T11:05:28;11.70;99.90
18041;DHT22;9145;48.588;9.250;2023-02-16T11:07:58;11.90;99.90
18041;DHT22;9145;48.588;9.250;2023-02-16T11:10:35;12.00;99.90
18041;DHT22;9145;48.588;9.250;2023-02-16T11:13:03;12.10;99.90
18041;DHT22;9145;48.588;9.250;2023-02-16T11:15:32;12.20;99.90
18041;DHT22;9145;48.588;9.250;2023-02-16T11:18:03;12.20;99.90
18041;DHT22;9145;48.588;9.250;2023-02-16T11:20:34;12.30;99.90
18041;DHT22;9145;48.588;9.250;2023-02-16T11:23:22;12.40;99.90
18041;DHT22;9145;48.588;9.250;2023-02-16T11:25:54;12.50;99.90
18041;DHT22;9145;48.588;9.250;2023-02-16T11:28:27;12.70;99.90
18041;DHT22;9145;48.588;9.250;2023-02-16T11:31:03;12.80;99.90
18041;DHT22;9145;48.588;9.250;2023-02-16T11:33:32;12.80;99.90
18041;DHT22;9145;48.588;9.250;2023-02-16T11:36:00;12.80;99.90
18041;DHT22;9145;48.588;9.250;2023-02-16T11:38:32;12.90;99.90
18041;DHT22;9145;48.588;9.250;2023-02-16T11:41:01;13.00;99.90
18041;DHT22;9145;48.588;9.250;2023-02-16T11:43:31;13.00;99.90
18041;DHT22;9145;48.588;9.250;2023-02-16T11:46:00;13.20;99.90
18041;DHT22;9145;48.588;9.250;2023-02-16T11:48:30;13.40;99.90
18041;DHT22;9145;48.588;9.250;2023-02-16T11:51:00;13.50;99.90
18041;DHT22;9145;48.588;9.250;2023-02-16T11:53:29;13.50;99.90
18041;DHT22;9145;48.588;9.250;2023-02-16T11:56:12;13.60;99.90
18041;DHT22;9145;48.588;9.250;2023-02-16T11:58:43;13.70;99.90
18041;DHT22;9145;48.588;9.250;2023-02-16T12:01:18;13.80;99.90
18041;DHT22;9145;48.588;9.250;2023-02-16T12:03:58;14.00;99.90
18041;DHT22;9145;48.588;9.250;2023-02-16T12:06:45;14.10;99.90
18041;DHT22;9145;48.588;9.250;2023-02-16T12:09:21;14.10;99.90
18041;DHT22;9145;48.588;9.250;2023-02-16T12:11:59;14.10;99.90
18041;DHT22;9145;48.588;9.250;2023-02-16T12:14:36;14.30;99.90
18041;DHT22;9145;48.588;9.250;2023-02-16T12:17:15;14.40;99.90
18041;DHT22;9145;48.588;9.250;2023-02-16T12:19:45;14.40;99.90
18041;DHT22;9145;48.588;9.250;2023-02-16T12:22:23;14.50;99.90
18041;DHT22;9145;48.588;9.250;2023-02-16T12:25:02;14.50;99.30
18041;DHT22;9145;48.588;9.250;2023-02-16T12:27:35;14.60;99.70
18041;DHT22;9145;48.588;9.250;2023-02-16T12:30:07;14.70;99.50
18041;DHT22;9145;48.588;9.250;2023-02-16T12:32:47;14.60;98.90
18041;DHT22;9145;48.588;9.250;2023-02-16T12:35:36;14.80;99.00
18041;DHT22;9145;48.588;9.250;2023-02-16T12:38:17;14.90;98.80
18041;DHT22;9145;48.588;9.250;2023-02-16T12:40:53;14.80;98.00
18041;DHT22;9145;48.588;9.250;2023-02-16T12:43:36;14.80;98.10
18041;DHT22;9145;48.588;9.250;2023-02-16T12:46:11;14.70;98.70
18041;DHT22;9145;48.588;9.250;2023-02-16T12:48:44;14.70;98.60
18041;DHT22;9145;48.588;9.250;2023-02-16T12:51:16;14.70;99.20
18041;DHT22;9145;48.588;9.250;2023-02-16T12:53:51;14.60;98.60
18041;DHT22;9145;48.588;9.250;2023-02-16T12:56:24;14.60;99.90
18041;DHT22;9145;48.588;9.250;2023-02-16T12:58:59;14.70;99.00
18041;DHT22;9145;48.588;9.250;2023-02-16T13:01:29;14.70;98.70
18041;DHT22;9145;48.588;9.250;2023-02-16T13:04:03;14.80;98.60
18041;DHT22;9145;48.588;9.250;2023-02-16T13:06:35;15.00;98.10
18041;DHT22;9145;48.588;9.250;2023-02-16T13:09:13;15.10;97.80
18041;DHT22;9145;48.588;9.250;2023-02-16T13:11:47;15.10;98.70
18041;DHT22;9145;48.588;9.250;2023-02-16T13:14:17;15.00;98.20
18041;DHT22;9145;48.588;9.250;2023-02-16T13:16:48;15.10;98.30
18041;DHT22;9145;48.588;9.250;2023-02-16T13:19:15;15.30;98.90
18041;DHT22;9145;48.588;9.250;2023-02-16T13:24:51;15.70;97.60
18041;DHT22;9145;48.588;9.250;2023-02-16T13:27:28;15.70;98.30
18041;DHT22;9145;48.588;9.250;2023-02-16T13:30:35;15.60;96.90
18041;DHT22;9145;48.588;9.250;2023-02-16T13:33:16;15.70;96.60
18041;DHT22;9145;48.588;9.250;2023-02-16T13:36:12;15.90;96.70
18041;DHT22;9145;48.588;9.250;2023-02-16T13:44:52;15.40;95.50
18041;DHT22;9145;48.588;9.250;2023-02-16T13:47:26;15.40;94.60
18041;DHT22;9145;48.588;9.250;2023-02-16T13:49:56;15.50;95.60
18041;DHT22;9145;48.588;9.250;2023-02-16T13:52:30;15.60;94.70
18041;DHT22;9145;48.588;9.250;2023-02-16T13:55:00;15.90;95.50
18041;DHT22;9145;48.588;9.250;2023-02-16T13:57:55;16.00;95.30
18041;DHT22;9145;48.588;9.250;2023-02-16T14:00:27;16.30;95.30
18041;DHT22;9145;48.588;9.250;2023-02-16T14:02:56;16.70;94.50
18041;DHT22;9145;48.588;9.250;2023-02-16T14:05:27;16.90;93.90
18041;DHT22;9145;48.588;9.250;2023-02-16T14:08:15;17.00;95.80
18041;DHT22;9145;48.588;9.250;2023-02-16T14:10:59;17.20;94.50
18041;DHT22;9145;48.588;9.250;2023-02-16T14:13:30;16.90;93.50
18041;DHT22;9145;48.588;9.250;2023-02-16T14:15:59;16.70;93.40
18041;DHT22;9145;48.588;9.250;2023-02-16T14:18:31;16.70;94.10
18041;DHT22;9145;48.588;9.250;2023-02-16T14:21:01;16.40;94.90
18041;DHT22;9145;48.588;9.250;2023-02-16T14:23:31;16.30;93.80
18041;DHT22;9145;48.588;9.250;2023-02-16T14:26:01;15.90;93.70
18041;DHT22;9145;48.588;9.250;2023-02-16T14:31:40;15.40;95.00
18041;DHT22;9145;48.588;9.250;2023-02-16T14:34:15;15.20;95.00
18041;DHT22;9145;48.588;9.250;2023-02-16T14:39:49;14.80;95.60
18041;DHT22;9145;48.588;9.250;2023-02-16T14:42:23;14.70;96.00
18041;DHT22;9145;48.588;9.250;2023-02-16T14:45:04;14.70;96.00
18041;DHT22;9145;48.588;9.250;2023-02-16T14:47:41;14.70;96.30
18041;DHT22;9145;48.588;9.250;2023-02-16T14:50:30;14.60;96.40
18041;DHT22;9145;48.588;9.250;2023-02-16T14:56:33;14.50;97.30
18041;DHT22;9145;48.588;9.250;2023-02-16T14:59:05;14.40;96.90
18041;DHT22;9145;48.588;9.250;2023-02-16T15:01:40;14.50;96.70
18041;DHT22;9145;48.588;9.250;2023-02-16T15:04:09;14.50;97.00
18041;DHT22;9145;48.588;9.250;2023-02-16T15:06:39;14.50;97.10
18041;DHT22;9145;48.588;9.250;2023-02-16T15:09:13;14.50;96.90
18041;DHT22;9145;48.588;9.250;2023-02-16T15:11:48;14.50;97.80
18041;DHT22;9145;48.588;9.250;2023-02-16T15:14:36;14.60;97.80
18041;DHT22;9145;48.588;9.250;2023-02-16T15:17:07;14.80;97.90
18041;DHT22;9145;48.588;9.250;2023-02-16T15:19:37;14.70;97.40
18041;DHT22;9145;48.588;9.250;2023-02-16T15:22:15;14.60;98.10
18041;DHT22;9145;48.588;9.250;2023-02-16T15:24:43;14.60;97.80
18041;DHT22;9145;48.588;9.250;2023-02-16T15:27:20;14.40;98.20
18041;DHT22;9145;48.588;9.250;2023-02-16T15:30:03;14.30;98.30
18041;DHT22;9145;48.588;9.250;2023-02-16T15:32:31;14.10;98.40
18041;DHT22;9145;48.588;9.250;2023-02-16T15:35:08;14.00;99.00
18041;DHT22;9145;48.588;9.250;2023-02-16T15:37:35;13.80;98.80
18041;DHT22;9145;48.588;9.250;2023-02-16T15:40:12;13.80;98.80
18041;DHT22;9145;48.588;9.250;2023-02-16T15:42:41;13.70;99.00
18041;DHT22;9145;48.588;9.250;2023-02-16T15:45:28;13.60;99.30
18041;DHT22;9145;48.588;9.250;2023-02-16T15:48:15;13.60;99.30
18041;DHT22;9145;48.588;9.250;2023-02-16T15:50:48;13.60;99.30
18041;DHT22;9145;48.588;9.250;2023-02-16T15:53:22;13.50;99.20
18041;DHT22;9145;48.588;9.250;2023-02-16T15:55:50;13.40;98.80
18041;DHT22;9145;48.588;9.250;2023-02-16T15:58:17;13.40;99.00
18041;DHT22;9145;48.588;9.250;2023-02-16T16:00:44;13.30;99.10
18041;DHT22;9145;48.588;9.250;2023-02-16T16:03:14;13.20;99.10
18041;DHT22;9145;48.588;9.250;2023-02-16T16:05:52;13.20;99.40
18041;DHT22;9145;48.588;9.250;2023-02-16T16:08:22;13.10;99.70
18041;DHT22;9145;48.588;9.250;2023-02-16T16:10:50;13.00;99.50
18041;DHT22;9145;48.588;9.250;2023-02-16T16:13:21;13.00;99.50
18041;DHT22;9145;48.588;9.250;2023-02-16T16:15:49;13.00;99.60
18041;DHT22;9145;48.588;9.250;2023-02-16T16:18:38;12.90;99.70
18041;DHT22;9145;48.588;9.250;2023-02-16T16:21:15;12.80;99.90
18041;DHT22;9145;48.588;9.250;2023-02-16T16:23:56;12.80;99.90
18041;DHT22;9145;48.588;9.250;2023-02-16T16:26:25;12.70;99.90
18041;DHT22;9145;48.588;9.250;2023-02-16T16:28:52;12.70;99.90
18041;DHT22;9145;48.588;9.250;2023-02-16T16:31:32;12.60;99.90
18041;DHT22;9145;48.588;9.250;2023-02-16T16:34:01;12.60;99.90
18041;DHT22;9145;48.588;9.250;2023-02-16T16:36:32;12.60;99.90
18041;DHT22;9145;48.588;9.250;2023-02-16T16:39:22;12.70;99.80
18041;DHT22;9145;48.588;9.250;2023-02-16T16:42:14;12.60;99.90
18041;DHT22;9145;48.588;9.250;2023-02-16T16:44:43;12.60;99.90
18041;DHT22;9145;48.588;9.250;2023-02-16T16:47:22;12.50;99.90